sensor_id;sensor_type;location;lat;lon;timestamp;P1;durP1;ratioP1;P2;durP2;ratioP2
77170;SDS011;66144;50.020;14.422;2023-09-18T00:01:36;6.38;;;4.13;;
77170;SDS011;66144;50.020;14.422;2023-09-18T00:04:04;6.00;;;4.43;;
77170;SDS011;66144;50.020;14.422;2023-09-18T00:06:32;7.78;;;4.50;;
77170;SDS011;66144;50.020;14.422;2023-09-18T00:08:58;7.35;;;4.68;;
77170;SDS011;66144;50.020;14.422;2023-09-18T00:11:24;10.43;;;5.55;;
77170;SDS011;66144;50.020;14.422;2023-09-18T00:13:49;8.10;;;5.10;;
77170;SDS011;66144;50.020;14.422;2023-09-18T00:16:15;7.47;;;4.88;;
77170;SDS011;66144;50.020;14.422;2023-09-18T00:18:40;6.93;;;4.68;;
77170;SDS011;66144;50.020;14.422;2023-09-18T00:21:07;6.28;;;4.82;;
77170;SDS011;66144;50.020;14.422;2023-09-18T00:23:35;6.25;;;5.07;;
77170;SDS011;66144;50.020;14.422;2023-09-18T00:26:01;7.25;;;5.78;;
77170;SDS011;66144;50.020;14.422;2023-09-18T00:28:26;6.30;;;4.85;;
77170;SDS011;66144;50.020;14.422;2023-09-18T00:30:51;5.88;;;4.53;;
77170;SDS011;66144;50.020;14.422;2023-09-18T00:33:17;6.97;;;4.80;;
77170;SDS011;66144;50.020;14.422;2023-09-18T00:35:51;6.40;;;4.68;;
77170;SDS011;66144;50.020;14.422;2023-09-18T00:38:17;7.20;;;4.90;;
77170;SDS011;66144;50.020;14.422;2023-09-18T00:40:42;7.70;;;4.78;;
77170;SDS011;66144;50.020;14.422;2023-09-18T00:43:08;7.07;;;5.30;;
77170;SDS011;66144;50.020;14.422;2023-09-18T00:45:35;6.95;;;5.22;;
77170;SDS011;66144;50.020;14.422;2023-09-18T00:48:05;7.80;;;4.78;;
77170;SDS011;66144;50.020;14.422;2023-09-18T00:50:30;6.70;;;4.55;;
77170;SDS011;66144;50.020;14.422;2023-09-18T00:52:59;7.68;;;5.13;;
77170;SDS011;66144;50.020;14.422;2023-09-18T00:55:26;6.40;;;4.47;;
77170;SDS011;66144;50.020;14.422;2023-09-18T00:57:54;6.75;;;4.95;;
77170;SDS011;66144;50.020;14.422;2023-09-18T01:00:20;7.20;;;5.22;;
77170;SDS011;66144;50.020;14.422;2023-09-18T01:02:47;6.28;;;4.82;;
77170;SDS011;66144;50.020;14.422;2023-09-18T01:05:13;6.78;;;4.82;;
77170;SDS011;66144;50.020;14.422;2023-09-18T01:07:41;6.63;;;4.93;;
77170;SDS011;66144;50.020;14.422;2023-09-18T01:10:07;6.45;;;4.97;;
77170;SDS011;66144;50.020;14.422;2023-09-18T01:12:36;6.65;;;4.72;;
77170;SDS011;66144;50.020;14.422;2023-09-18T01:17:36;6.07;;;5.03;;
77170;SDS011;66144;50.020;14.422;2023-09-18T01:20:05;6.80;;;4.57;;
77170;SDS011;66144;50.020;14.422;2023-09-18T01:22:34;7.55;;;4.75;;
77170;SDS011;66144;50.020;14.422;2023-09-18T01:24:59;6.55;;;4.68;;
77170;SDS011;66144;50.020;14.422;2023-09-18T01:27:25;7.18;;;5.10;;
77170;SDS011;66144;50.020;14.422;2023-09-18T01:29:50;6.88;;;5.22;;
77170;SDS011;66144;50.020;14.422;2023-09-18T01:32:16;6.53;;;5.03;;
77170;SDS011;66144;50.020;14.422;2023-09-18T01:34:46;6.60;;;4.68;;
77170;SDS011;66144;50.020;14.422;2023-09-18T01:37:14;7.25;;;5.13;;
77170;SDS011;66144;50.020;14.422;2023-09-18T01:39:41;7.10;;;5.45;;
77170;SDS011;66144;50.020;14.422;2023-09-18T01:42:07;6.15;;;4.75;;
77170;SDS011;66144;50.020;14.422;2023-09-18T01:44:36;6.53;;;4.63;;
77170;SDS011;66144;50.020;14.422;2023-09-18T01:47:12;7.55;;;4.82;;
77170;SDS011;66144;50.020;14.422;2023-09-18T01:49:40;7.88;;;5.70;;
77170;SDS011;66144;50.020;14.422;2023-09-18T01:52:06;6.13;;;4.63;;
77170;SDS011;66144;50.020;14.422;2023-09-18T01:54:33;5.78;;;5.15;;
77170;SDS011;66144;50.020;14.422;2023-09-18T01:56:59;7.80;;;5.10;;
77170;SDS011;66144;50.020;14.422;2023-09-18T01:59:25;8.82;;;5.07;;
77170;SDS011;66144;50.020;14.422;2023-09-18T02:01:51;6.68;;;4.72;;
77170;SDS011;66144;50.020;14.422;2023-09-18T02:04:18;8.07;;;5.00;;
77170;SDS011;66144;50.020;14.422;2023-09-18T02:06:45;6.63;;;5.15;;
77170;SDS011;66144;50.020;14.422;2023-09-18T02:09:12;7.75;;;5.15;;
77170;SDS011;66144;50.020;14.422;2023-09-18T02:11:38;6.32;;;4.25;;
77170;SDS011;66144;50.020;14.422;2023-09-18T02:14:05;6.80;;;4.95;;
77170;SDS011;66144;50.020;14.422;2023-09-18T02:16:34;7.45;;;5.25;;
77170;SDS011;66144;50.020;14.422;2023-09-18T02:19:01;8.77;;;5.55;;
77170;SDS011;66144;50.020;14.422;2023-09-18T02:21:26;8.68;;;5.95;;
77170;SDS011;66144;50.020;14.422;2023-09-18T02:23:52;7.70;;;5.32;;
77170;SDS011;66144;50.020;14.422;2023-09-18T02:26:21;6.95;;;5.40;;
77170;SDS011;66144;50.020;14.422;2023-09-18T02:28:47;6.18;;;4.95;;
77170;SDS011;66144;50.020;14.422;2023-09-18T02:31:13;7.30;;;5.05;;
77170;SDS011;66144;50.020;14.422;2023-09-18T02:33:39;8.52;;;4.82;;
77170;SDS011;66144;50.020;14.422;2023-09-18T02:36:05;6.85;;;4.70;;
77170;SDS011;66144;50.020;14.422;2023-09-18T02:38:31;6.75;;;4.65;;
77170;SDS011;66144;50.020;14.422;2023-09-18T02:40:57;7.53;;;4.70;;
77170;SDS011;66144;50.020;14.422;2023-09-18T02:43:23;6.53;;;5.45;;
77170;SDS011;66144;50.020;14.422;2023-09-18T02:45:49;7.00;;;4.85;;
77170;SDS011;66144;50.020;14.422;2023-09-18T02:48:15;8.77;;;5.60;;
77170;SDS011;66144;50.020;14.422;2023-09-18T02:50:41;6.80;;;5.35;;
77170;SDS011;66144;50.020;14.422;2023-09-18T02:53:07;12.57;;;4.95;;
77170;SDS011;66144;50.020;14.422;2023-09-18T02:55:36;6.50;;;4.78;;
77170;SDS011;66144;50.020;14.422;2023-09-18T02:58:02;7.15;;;5.28;;
77170;SDS011;66144;50.020;14.422;2023-09-18T03:00:28;6.55;;;4.60;;
77170;SDS011;66144;50.020;14.422;2023-09-18T03:02:53;7.22;;;4.70;;
77170;SDS011;66144;50.020;14.422;2023-09-18T03:05:19;6.65;;;4.80;;
77170;SDS011;66144;50.020;14.422;2023-09-18T03:07:44;7.85;;;5.50;;
77170;SDS011;66144;50.020;14.422;2023-09-18T03:10:09;7.53;;;5.00;;
77170;SDS011;66144;50.020;14.422;2023-09-18T03:12:38;6.72;;;4.80;;
77170;SDS011;66144;50.020;14.422;2023-09-18T03:15:07;7.80;;;5.28;;
77170;SDS011;66144;50.020;14.422;2023-09-18T03:17:32;7.57;;;5.65;;
77170;SDS011;66144;50.020;14.422;2023-09-18T03:19:58;8.48;;;4.63;;
77170;SDS011;66144;50.020;14.422;2023-09-18T03:22:23;8.10;;;5.25;;
77170;SDS011;66144;50.020;14.422;2023-09-18T03:24:49;6.90;;;5.30;;
77170;SDS011;66144;50.020;14.422;2023-09-18T03:27:14;7.80;;;5.13;;
77170;SDS011;66144;50.020;14.422;2023-09-18T03:29:40;7.15;;;4.72;;
77170;SDS011;66144;50.020;14.422;2023-09-18T03:32:05;7.68;;;5.10;;
77170;SDS011;66144;50.020;14.422;2023-09-18T03:34:31;8.23;;;5.10;;
77170;SDS011;66144;50.020;14.422;2023-09-18T03:36:56;7.13;;;5.10;;
77170;SDS011;66144;50.020;14.422;2023-09-18T03:39:21;7.15;;;5.40;;
77170;SDS011;66144;50.020;14.422;2023-09-18T03:41:47;5.90;;;4.82;;
77170;SDS011;66144;50.020;14.422;2023-09-18T03:44:12;6.30;;;5.30;;
77170;SDS011;66144;50.020;14.422;2023-09-18T03:46:37;6.22;;;4.65;;
77170;SDS011;66144;50.020;14.422;2023-09-18T03:49:03;6.68;;;5.10;;
77170;SDS011;66144;50.020;14.422;2023-09-18T03:51:29;6.43;;;4.75;;
77170;SDS011;66144;50.020;14.422;2023-09-18T03:53:55;6.65;;;4.90;;
77170;SDS011;66144;50.020;14.422;2023-09-18T03:56:20;6.70;;;5.10;;
77170;SDS011;66144;50.020;14.422;2023-09-18T03:58:47;6.65;;;5.05;;
77170;SDS011;66144;50.020;14.422;2023-09-18T04:01:14;7.25;;;5.60;;
77170;SDS011;66144;50.020;14.422;2023-09-18T04:03:43;9.57;;;5.20;;
77170;SDS011;66144;50.020;14.422;2023-09-18T04:06:08;8.23;;;5.20;;
77170;SDS011;66144;50.020;14.422;2023-09-18T04:08:33;8.50;;;5.55;;
77170;SDS011;66144;50.020;14.422;2023-09-18T04:10:59;6.38;;;4.57;;
77170;SDS011;66144;50.020;14.422;2023-09-18T04:13:25;7.75;;;5.63;;
77170;SDS011;66144;50.020;14.422;2023-09-18T04:15:50;9.15;;;5.60;;
77170;SDS011;66144;50.020;14.422;2023-09-18T04:18:21;6.32;;;4.78;;
77170;SDS011;66144;50.020;14.422;2023-09-18T04:20:47;8.50;;;5.50;;
77170;SDS011;66144;50.020;14.422;2023-09-18T04:25:48;6.82;;;5.28;;
77170;SDS011;66144;50.020;14.422;2023-09-18T04:28:15;7.07;;;4.72;;
77170;SDS011;66144;50.020;14.422;2023-09-18T04:30:42;10.95;;;5.90;;
77170;SDS011;66144;50.020;14.422;2023-09-18T04:33:07;10.30;;;6.40;;
77170;SDS011;66144;50.020;14.422;2023-09-18T04:35:33;10.68;;;5.18;;
77170;SDS011;66144;50.020;14.422;2023-09-18T04:37:58;7.43;;;5.35;;
77170;SDS011;66144;50.020;14.422;2023-09-18T04:40:24;7.75;;;5.03;;
77170;SDS011;66144;50.020;14.422;2023-09-18T04:42:51;8.60;;;4.88;;
77170;SDS011;66144;50.020;14.422;2023-09-18T04:45:17;8.43;;;5.28;;
77170;SDS011;66144;50.020;14.422;2023-09-18T04:47:43;7.68;;;5.82;;
77170;SDS011;66144;50.020;14.422;2023-09-18T04:50:08;9.82;;;6.00;;
77170;SDS011;66144;50.020;14.422;2023-09-18T04:52:35;7.15;;;5.55;;
77170;SDS011;66144;50.020;14.422;2023-09-18T04:55:01;6.45;;;5.22;;
77170;SDS011;66144;50.020;14.422;2023-09-18T04:57:26;8.68;;;5.28;;
77170;SDS011;66144;50.020;14.422;2023-09-18T04:59:52;7.50;;;5.18;;
77170;SDS011;66144;50.020;14.422;2023-09-18T05:02:17;7.57;;;5.25;;
77170;SDS011;66144;50.020;14.422;2023-09-18T05:04:42;7.93;;;5.25;;
77170;SDS011;66144;50.020;14.422;2023-09-18T05:07:08;7.80;;;5.60;;
77170;SDS011;66144;50.020;14.422;2023-09-18T05:09:33;8.50;;;6.28;;
77170;SDS011;66144;50.020;14.422;2023-09-18T05:11:59;6.78;;;4.63;;
77170;SDS011;66144;50.020;14.422;2023-09-18T05:14:25;11.63;;;5.68;;
77170;SDS011;66144;50.020;14.422;2023-09-18T05:16:50;9.70;;;5.47;;
77170;SDS011;66144;50.020;14.422;2023-09-18T05:19:19;6.28;;;4.80;;
77170;SDS011;66144;50.020;14.422;2023-09-18T05:21:44;7.40;;;4.90;;
77170;SDS011;66144;50.020;14.422;2023-09-18T05:24:09;9.27;;;5.55;;
77170;SDS011;66144;50.020;14.422;2023-09-18T05:26:35;9.65;;;6.15;;
77170;SDS011;66144;50.020;14.422;2023-09-18T05:29:00;7.10;;;5.50;;
77170;SDS011;66144;50.020;14.422;2023-09-18T05:31:25;8.55;;;5.47;;
77170;SDS011;66144;50.020;14.422;2023-09-18T05:33:51;8.65;;;5.85;;
77170;SDS011;66144;50.020;14.422;2023-09-18T05:36:17;8.40;;;6.13;;
77170;SDS011;66144;50.020;14.422;2023-09-18T05:38:42;9.40;;;6.15;;
77170;SDS011;66144;50.020;14.422;2023-09-18T05:41:11;7.95;;;5.57;;
77170;SDS011;66144;50.020;14.422;2023-09-18T05:43:36;11.50;;;6.03;;
77170;SDS011;66144;50.020;14.422;2023-09-18T05:46:02;10.23;;;5.22;;
77170;SDS011;66144;50.020;14.422;2023-09-18T05:48:27;13.10;;;5.60;;
77170;SDS011;66144;50.020;14.422;2023-09-18T05:50:53;10.07;;;6.03;;
77170;SDS011;66144;50.020;14.422;2023-09-18T05:53:19;9.25;;;5.40;;
77170;SDS011;66144;50.020;14.422;2023-09-18T05:55:45;8.23;;;5.07;;
77170;SDS011;66144;50.020;14.422;2023-09-18T05:58:10;8.23;;;4.90;;
77170;SDS011;66144;50.020;14.422;2023-09-18T06:00:36;7.82;;;5.53;;
77170;SDS011;66144;50.020;14.422;2023-09-18T06:03:02;11.18;;;5.85;;
77170;SDS011;66144;50.020;14.422;2023-09-18T06:05:28;9.02;;;5.55;;
77170;SDS011;66144;50.020;14.422;2023-09-18T06:07:56;6.85;;;5.03;;
77170;SDS011;66144;50.020;14.422;2023-09-18T06:10:21;7.90;;;5.70;;
77170;SDS011;66144;50.020;14.422;2023-09-18T06:12:46;10.10;;;5.53;;
77170;SDS011;66144;50.020;14.422;2023-09-18T06:15:12;9.10;;;5.28;;
77170;SDS011;66144;50.020;14.422;2023-09-18T06:17:38;8.52;;;5.25;;
77170;SDS011;66144;50.020;14.422;2023-09-18T06:20:05;8.38;;;5.30;;
77170;SDS011;66144;50.020;14.422;2023-09-18T06:22:34;8.38;;;5.38;;
77170;SDS011;66144;50.020;14.422;2023-09-18T06:24:59;9.27;;;5.50;;
77170;SDS011;66144;50.020;14.422;2023-09-18T06:27:25;9.75;;;5.85;;
77170;SDS011;66144;50.020;14.422;2023-09-18T06:29:50;9.07;;;5.47;;
77170;SDS011;66144;50.020;14.422;2023-09-18T06:32:15;8.80;;;6.10;;
77170;SDS011;66144;50.020;14.422;2023-09-18T06:34:41;9.02;;;6.20;;
77170;SDS011;66144;50.020;14.422;2023-09-18T06:37:09;10.55;;;6.65;;
77170;SDS011;66144;50.020;14.422;2023-09-18T06:39:37;9.27;;;6.30;;
77170;SDS011;66144;50.020;14.422;2023-09-18T06:42:02;8.05;;;6.43;;
77170;SDS011;66144;50.020;14.422;2023-09-18T06:44:28;10.20;;;6.55;;
77170;SDS011;66144;50.020;14.422;2023-09-18T06:46:53;9.27;;;6.03;;
77170;SDS011;66144;50.020;14.422;2023-09-18T06:49:19;11.65;;;8.23;;
77170;SDS011;66144;50.020;14.422;2023-09-18T06:51:44;10.13;;;5.75;;
77170;SDS011;66144;50.020;14.422;2023-09-18T06:54:10;9.77;;;8.02;;
77170;SDS011;66144;50.020;14.422;2023-09-18T06:56:35;8.68;;;7.15;;
77170;SDS011;66144;50.020;14.422;2023-09-18T06:59:01;10.30;;;7.90;;
77170;SDS011;66144;50.020;14.422;2023-09-18T07:01:26;11.95;;;9.23;;
77170;SDS011;66144;50.020;14.422;2023-09-18T07:03:53;10.70;;;8.00;;
77170;SDS011;66144;50.020;14.422;2023-09-18T07:06:18;12.80;;;7.80;;
77170;SDS011;66144;50.020;14.422;2023-09-18T07:08:45;12.00;;;8.30;;
77170;SDS011;66144;50.020;14.422;2023-09-18T07:11:11;8.85;;;7.25;;
77170;SDS011;66144;50.020;14.422;2023-09-18T07:13:37;11.70;;;7.90;;
77170;SDS011;66144;50.020;14.422;2023-09-18T07:16:03;9.68;;;6.85;;
77170;SDS011;66144;50.020;14.422;2023-09-18T07:18:28;9.02;;;7.07;;
77170;SDS011;66144;50.020;14.422;2023-09-18T07:20:54;9.45;;;6.95;;
77170;SDS011;66144;50.020;14.422;2023-09-18T07:23:19;9.43;;;7.50;;
77170;SDS011;66144;50.020;14.422;2023-09-18T07:25:47;8.48;;;7.18;;
77170;SDS011;66144;50.020;14.422;2023-09-18T07:28:13;10.38;;;7.13;;
77170;SDS011;66144;50.020;14.422;2023-09-18T07:30:42;8.70;;;7.30;;
77170;SDS011;66144;50.020;14.422;2023-09-18T07:33:09;8.48;;;7.00;;
77170;SDS011;66144;50.020;14.422;2023-09-18T07:35:34;10.43;;;7.90;;
77170;SDS011;66144;50.020;14.422;2023-09-18T07:38:00;12.07;;;7.25;;
77170;SDS011;66144;50.020;14.422;2023-09-18T07:40:25;10.20;;;7.05;;
77170;SDS011;66144;50.020;14.422;2023-09-18T07:42:51;9.00;;;7.25;;
77170;SDS011;66144;50.020;14.422;2023-09-18T07:45:16;8.88;;;6.78;;
77170;SDS011;66144;50.020;14.422;2023-09-18T07:47:43;11.35;;;6.50;;
77170;SDS011;66144;50.020;14.422;2023-09-18T07:50:08;9.00;;;5.72;;
77170;SDS011;66144;50.020;14.422;2023-09-18T07:52:34;7.93;;;6.40;;
77170;SDS011;66144;50.020;14.422;2023-09-18T07:55:00;9.68;;;6.32;;
77170;SDS011;66144;50.020;14.422;2023-09-18T07:57:25;7.03;;;6.30;;
77170;SDS011;66144;50.020;14.422;2023-09-18T07:59:53;9.10;;;6.97;;
77170;SDS011;66144;50.020;14.422;2023-09-18T08:02:18;6.93;;;5.68;;
77170;SDS011;66144;50.020;14.422;2023-09-18T08:04:44;6.63;;;5.57;;
77170;SDS011;66144;50.020;14.422;2023-09-18T08:07:09;9.48;;;7.03;;
77170;SDS011;66144;50.020;14.422;2023-09-18T08:09:35;8.50;;;5.55;;
77170;SDS011;66144;50.020;14.422;2023-09-18T08:12:02;9.75;;;6.78;;
77170;SDS011;66144;50.020;14.422;2023-09-18T08:14:28;8.02;;;6.03;;
77170;SDS011;66144;50.020;14.422;2023-09-18T08:16:57;9.85;;;6.15;;
77170;SDS011;66144;50.020;14.422;2023-09-18T08:19:23;10.80;;;6.55;;
77170;SDS011;66144;50.020;14.422;2023-09-18T08:21:51;8.82;;;5.10;;
77170;SDS011;66144;50.020;14.422;2023-09-18T08:24:18;9.00;;;5.18;;
77170;SDS011;66144;50.020;14.422;2023-09-18T08:26:43;8.68;;;6.07;;
77170;SDS011;66144;50.020;14.422;2023-09-18T08:29:09;8.35;;;5.85;;
77170;SDS011;66144;50.020;14.422;2023-09-18T08:31:34;10.77;;;6.65;;
77170;SDS011;66144;50.020;14.422;2023-09-18T08:33:59;8.52;;;6.55;;
77170;SDS011;66144;50.020;14.422;2023-09-18T08:36:25;9.95;;;5.63;;
77170;SDS011;66144;50.020;14.422;2023-09-18T08:38:50;7.22;;;5.45;;
77170;SDS011;66144;50.020;14.422;2023-09-18T08:41:17;7.20;;;5.40;;
77170;SDS011;66144;50.020;14.422;2023-09-18T08:43:44;10.35;;;5.50;;
77170;SDS011;66144;50.020;14.422;2023-09-18T08:46:13;8.10;;;5.68;;
77170;SDS011;66144;50.020;14.422;2023-09-18T08:48:39;6.45;;;5.05;;
77170;SDS011;66144;50.020;14.422;2023-09-18T08:51:06;7.68;;;5.32;;
77170;SDS011;66144;50.020;14.422;2023-09-18T08:53:32;8.80;;;5.25;;
77170;SDS011;66144;50.020;14.422;2023-09-18T08:55:59;6.20;;;4.97;;
77170;SDS011;66144;50.020;14.422;2023-09-18T08:58:31;7.38;;;4.90;;
77170;SDS011;66144;50.020;14.422;2023-09-18T09:01:00;7.70;;;4.82;;
77170;SDS011;66144;50.020;14.422;2023-09-18T09:03:28;8.35;;;4.93;;
77170;SDS011;66144;50.020;14.422;2023-09-18T09:05:54;7.15;;;5.03;;
77170;SDS011;66144;50.020;14.422;2023-09-18T09:08:19;8.20;;;5.25;;
77170;SDS011;66144;50.020;14.422;2023-09-18T09:10:46;7.38;;;4.60;;
77170;SDS011;66144;50.020;14.422;2023-09-18T09:13:11;8.40;;;4.60;;
77170;SDS011;66144;50.020;14.422;2023-09-18T09:15:45;6.55;;;4.57;;
77170;SDS011;66144;50.020;14.422;2023-09-18T09:18:12;7.47;;;4.47;;
77170;SDS011;66144;50.020;14.422;2023-09-18T09:20:40;6.97;;;4.20;;
77170;SDS011;66144;50.020;14.422;2023-09-18T09:23:07;7.30;;;4.38;;
77170;SDS011;66144;50.020;14.422;2023-09-18T09:25:34;6.35;;;4.22;;
77170;SDS011;66144;50.020;14.422;2023-09-18T09:28:00;6.78;;;4.40;;
77170;SDS011;66144;50.020;14.422;2023-09-18T09:30:30;6.15;;;4.97;;
77170;SDS011;66144;50.020;14.422;2023-09-18T09:32:56;6.18;;;4.97;;
77170;SDS011;66144;50.020;14.422;2023-09-18T09:37:51;6.75;;;4.65;;
77170;SDS011;66144;50.020;14.422;2023-09-18T09:40:18;7.47;;;4.70;;
77170;SDS011;66144;50.020;14.422;2023-09-18T09:42:44;7.45;;;5.18;;
77170;SDS011;66144;50.020;14.422;2023-09-18T09:45:12;6.97;;;4.65;;
77170;SDS011;66144;50.020;14.422;2023-09-18T09:47:41;6.35;;;4.57;;
77170;SDS011;66144;50.020;14.422;2023-09-18T09:50:07;10.50;;;5.40;;
77170;SDS011;66144;50.020;14.422;2023-09-18T09:52:45;5.65;;;4.30;;
77170;SDS011;66144;50.020;14.422;2023-09-18T09:55:23;6.22;;;4.13;;
77170;SDS011;66144;50.020;14.422;2023-09-18T10:00:25;6.13;;;4.18;;
77170;SDS011;66144;50.020;14.422;2023-09-18T10:03:09;5.15;;;4.43;;
77170;SDS011;66144;50.020;14.422;2023-09-18T10:05:40;7.22;;;4.72;;
77170;SDS011;66144;50.020;14.422;2023-09-18T10:08:13;7.25;;;4.43;;
77170;SDS011;66144;50.020;14.422;2023-09-18T10:10:50;6.40;;;4.80;;
77170;SDS011;66144;50.020;14.422;2023-09-18T10:13:18;6.90;;;5.10;;
77170;SDS011;66144;50.020;14.422;2023-09-18T10:15:50;4.97;;;4.32;;
77170;SDS011;66144;50.020;14.422;2023-09-18T10:18:17;6.03;;;3.92;;
77170;SDS011;66144;50.020;14.422;2023-09-18T10:20:43;5.85;;;4.72;;
77170;SDS011;66144;50.020;14.422;2023-09-18T10:23:30;6.18;;;4.43;;
77170;SDS011;66144;50.020;14.422;2023-09-18T10:26:09;5.63;;;4.28;;
77170;SDS011;66144;50.020;14.422;2023-09-18T10:28:41;6.28;;;4.32;;
77170;SDS011;66144;50.020;14.422;2023-09-18T10:31:08;6.38;;;4.50;;
77170;SDS011;66144;50.020;14.422;2023-09-18T10:33:36;5.32;;;4.13;;
77170;SDS011;66144;50.020;14.422;2023-09-18T10:36:03;6.00;;;4.25;;
77170;SDS011;66144;50.020;14.422;2023-09-18T10:38:31;4.18;;;3.50;;
77170;SDS011;66144;50.020;14.422;2023-09-18T10:40:57;4.78;;;4.28;;
77170;SDS011;66144;50.020;14.422;2023-09-18T10:43:24;5.45;;;3.67;;
77170;SDS011;66144;50.020;14.422;2023-09-18T10:45:49;4.78;;;3.63;;
77170;SDS011;66144;50.020;14.422;2023-09-18T10:48:17;5.13;;;3.92;;
77170;SDS011;66144;50.020;14.422;2023-09-18T10:50:44;5.00;;;3.90;;
77170;SDS011;66144;50.020;14.422;2023-09-18T10:53:10;4.50;;;3.58;;
77170;SDS011;66144;50.020;14.422;2023-09-18T10:55:36;5.10;;;4.05;;
77170;SDS011;66144;50.020;14.422;2023-09-18T10:58:03;4.35;;;3.60;;
77170;SDS011;66144;50.020;14.422;2023-09-18T11:00:29;4.65;;;3.95;;
77170;SDS011;66144;50.020;14.422;2023-09-18T11:03:14;5.53;;;4.50;;
77170;SDS011;66144;50.020;14.422;2023-09-18T11:05:45;4.90;;;3.65;;
77170;SDS011;66144;50.020;14.422;2023-09-18T11:08:30;4.95;;;3.13;;
77170;SDS011;66144;50.020;14.422;2023-09-18T11:10:59;4.95;;;4.07;;
77170;SDS011;66144;50.020;14.422;2023-09-18T11:13:34;4.28;;;3.72;;
77170;SDS011;66144;50.020;14.422;2023-09-18T11:16:47;4.47;;;3.92;;
77170;SDS011;66144;50.020;14.422;2023-09-18T11:21:25;4.47;;;3.03;;
77170;SDS011;66144;50.020;14.422;2023-09-18T11:26:29;4.50;;;3.75;;
77170;SDS011;66144;50.020;14.422;2023-09-18T11:28:59;4.28;;;3.78;;
77170;SDS011;66144;50.020;14.422;2023-09-18T11:36:47;5.18;;;4.00;;
77170;SDS011;66144;50.020;14.422;2023-09-18T11:39:13;4.97;;;4.05;;
77170;SDS011;66144;50.020;14.422;2023-09-18T11:42:17;9.15;;;3.75;;
77170;SDS011;66144;50.020;14.422;2023-09-18T11:44:44;8.75;;;3.72;;
77170;SDS011;66144;50.020;14.422;2023-09-18T11:47:17;4.43;;;3.63;;
77170;SDS011;66144;50.020;14.422;2023-09-18T11:52:25;5.93;;;3.90;;
77170;SDS011;66144;50.020;14.422;2023-09-18T11:54:52;4.78;;;4.28;;
77170;SDS011;66144;50.020;14.422;2023-09-18T11:57:20;5.28;;;3.92;;
77170;SDS011;66144;50.020;14.422;2023-09-18T11:59:45;5.30;;;4.00;;
77170;SDS011;66144;50.020;14.422;2023-09-18T12:02:24;5.22;;;3.83;;
77170;SDS011;66144;50.020;14.422;2023-09-18T12:04:52;4.68;;;3.55;;
77170;SDS011;66144;50.020;14.422;2023-09-18T12:07:21;4.90;;;4.00;;
77170;SDS011;66144;50.020;14.422;2023-09-18T12:09:47;5.68;;;4.20;;
77170;SDS011;66144;50.020;14.422;2023-09-18T12:12:13;5.07;;;4.13;;
77170;SDS011;66144;50.020;14.422;2023-09-18T12:14:40;5.18;;;4.32;;
77170;SDS011;66144;50.020;14.422;2023-09-18T12:17:13;4.82;;;4.03;;
77170;SDS011;66144;50.020;14.422;2023-09-18T12:19:49;4.40;;;3.90;;
77170;SDS011;66144;50.020;14.422;2023-09-18T12:22:28;4.93;;;3.75;;
77170;SDS011;66144;50.020;14.422;2023-09-18T12:25:13;5.28;;;4.20;;
77170;SDS011;66144;50.020;14.422;2023-09-18T12:27:39;5.55;;;3.95;;
77170;SDS011;66144;50.020;14.422;2023-09-18T12:30:06;4.65;;;3.92;;
77170;SDS011;66144;50.020;14.422;2023-09-18T12:32:35;6.63;;;4.43;;
77170;SDS011;66144;50.020;14.422;2023-09-18T12:35:02;5.45;;;3.95;;
77170;SDS011;66144;50.020;14.422;2023-09-18T12:37:31;5.40;;;4.18;;
77170;SDS011;66144;50.020;14.422;2023-09-18T12:39:57;5.78;;;4.40;;
77170;SDS011;66144;50.020;14.422;2023-09-18T12:42:22;5.18;;;4.18;;
77170;SDS011;66144;50.020;14.422;2023-09-18T12:44:48;6.07;;;4.18;;
77170;SDS011;66144;50.020;14.422;2023-09-18T12:47:14;5.78;;;4.15;;
77170;SDS011;66144;50.020;14.422;2023-09-18T12:49:40;5.00;;;3.95;;
77170;SDS011;66144;50.020;14.422;2023-09-18T12:52:05;5.97;;;4.40;;
77170;SDS011;66144;50.020;14.422;2023-09-18T12:57:04;4.93;;;4.00;;
77170;SDS011;66144;50.020;14.422;2023-09-18T12:59:31;6.43;;;3.72;;
77170;SDS011;66144;50.020;14.422;2023-09-18T13:01:58;6.22;;;4.25;;
77170;SDS011;66144;50.020;14.422;2023-09-18T13:04:24;8.75;;;4.97;;
77170;SDS011;66144;50.020;14.422;2023-09-18T13:07:06;6.05;;;3.85;;
77170;SDS011;66144;50.020;14.422;2023-09-18T13:09:33;5.22;;;4.18;;
77170;SDS011;66144;50.020;14.422;2023-09-18T13:12:00;8.07;;;4.68;;
77170;SDS011;66144;50.020;14.422;2023-09-18T13:14:25;5.85;;;4.10;;
77170;SDS011;66144;50.020;14.422;2023-09-18T13:16:50;5.30;;;4.00;;
77170;SDS011;66144;50.020;14.422;2023-09-18T13:19:17;5.32;;;4.25;;
77170;SDS011;66144;50.020;14.422;2023-09-18T13:21:46;5.28;;;4.03;;
77170;SDS011;66144;50.020;14.422;2023-09-18T13:24:25;5.78;;;4.00;;
77170;SDS011;66144;50.020;14.422;2023-09-18T13:26:52;5.55;;;4.28;;
77170;SDS011;66144;50.020;14.422;2023-09-18T13:29:19;5.70;;;4.15;;
77170;SDS011;66144;50.020;14.422;2023-09-18T13:31:44;6.00;;;4.70;;
77170;SDS011;66144;50.020;14.422;2023-09-18T13:34:09;12.25;;;4.85;;
77170;SDS011;66144;50.020;14.422;2023-09-18T13:36:36;13.32;;;5.43;;
77170;SDS011;66144;50.020;14.422;2023-09-18T13:39:02;6.97;;;4.35;;
77170;SDS011;66144;50.020;14.422;2023-09-18T13:41:28;6.65;;;4.35;;
77170;SDS011;66144;50.020;14.422;2023-09-18T13:43:53;11.23;;;4.53;;
77170;SDS011;66144;50.020;14.422;2023-09-18T13:46:20;8.90;;;4.47;;
77170;SDS011;66144;50.020;14.422;2023-09-18T13:48:47;7.72;;;4.10;;
77170;SDS011;66144;50.020;14.422;2023-09-18T13:51:12;5.22;;;3.78;;
77170;SDS011;66144;50.020;14.422;2023-09-18T13:53:38;5.65;;;4.32;;
77170;SDS011;66144;50.020;14.422;2023-09-18T13:56:06;7.13;;;3.90;;
77170;SDS011;66144;50.020;14.422;2023-09-18T13:58:31;6.32;;;4.50;;
77170;SDS011;66144;50.020;14.422;2023-09-18T14:00:56;6.72;;;4.07;;
77170;SDS011;66144;50.020;14.422;2023-09-18T14:03:22;5.78;;;4.15;;
77170;SDS011;66144;50.020;14.422;2023-09-18T14:05:48;5.70;;;4.07;;
77170;SDS011;66144;50.020;14.422;2023-09-18T14:08:17;5.75;;;4.55;;
77170;SDS011;66144;50.020;14.422;2023-09-18T14:10:43;7.10;;;4.28;;
77170;SDS011;66144;50.020;14.422;2023-09-18T14:13:09;6.90;;;4.65;;
77170;SDS011;66144;50.020;14.422;2023-09-18T14:15:35;4.43;;;3.83;;
77170;SDS011;66144;50.020;14.422;2023-09-18T14:18:00;5.53;;;4.32;;
77170;SDS011;66144;50.020;14.422;2023-09-18T14:20:25;5.32;;;4.15;;
77170;SDS011;66144;50.020;14.422;2023-09-18T14:22:51;6.80;;;5.00;;
77170;SDS011;66144;50.020;14.422;2023-09-18T14:25:16;6.18;;;4.60;;
77170;SDS011;66144;50.020;14.422;2023-09-18T14:27:44;7.25;;;4.22;;
77170;SDS011;66144;50.020;14.422;2023-09-18T14:30:10;4.95;;;4.15;;
77170;SDS011;66144;50.020;14.422;2023-09-18T14:32:37;5.93;;;3.72;;
77170;SDS011;66144;50.020;14.422;2023-09-18T14:35:03;5.72;;;4.28;;
77170;SDS011;66144;50.020;14.422;2023-09-18T14:37:30;5.35;;;4.53;;
77170;SDS011;66144;50.020;14.422;2023-09-18T14:39:55;5.97;;;4.78;;
77170;SDS011;66144;50.020;14.422;2023-09-18T14:42:21;5.78;;;4.55;;
77170;SDS011;66144;50.020;14.422;2023-09-18T14:44:47;5.47;;;4.25;;
77170;SDS011;66144;50.020;14.422;2023-09-18T14:47:13;5.47;;;4.20;;
77170;SDS011;66144;50.020;14.422;2023-09-18T14:49:38;10.40;;;4.78;;
77170;SDS011;66144;50.020;14.422;2023-09-18T14:52:04;6.20;;;3.80;;
77170;SDS011;66144;50.020;14.422;2023-09-18T14:54:30;4.95;;;4.05;;
77170;SDS011;66144;50.020;14.422;2023-09-18T14:56:55;5.00;;;3.90;;
77170;SDS011;66144;50.020;14.422;2023-09-18T14:59:21;5.47;;;3.97;;